createdAt,value
2018-11-13T00:02:47.248Z,100.00
2018-11-13T00:05:30.064Z,100.00
2018-11-13T00:08:04.409Z,100.00
2018-11-13T00:16:28.443Z,100.00
2018-11-13T00:19:07.925Z,100.00
2018-11-13T00:21:53.463Z,100.00
2018-11-13T00:24:41.993Z,100.00
2018-11-13T00:27:21.714Z,100.00
2018-11-13T00:29:59.854Z,100.00
2018-11-13T00:32:42.165Z,100.00
2018-11-13T00:35:21.606Z,100.00
2018-11-13T00:40:50.836Z,100.00
2018-11-13T00:43:32.594Z,100.00
2018-11-13T00:46:15.626Z,100.00
2018-11-13T00:51:48.303Z,100.00
2018-11-13T00:54:31.354Z,100.00
2018-11-13T01:00:44.032Z,100.00
2018-11-13T01:03:23.916Z,100.00
2018-11-13T01:14:23.804Z,100.00
2018-11-13T01:17:11.757Z,100.00
2018-11-13T01:22:43.694Z,100.00
2018-11-13T01:28:14.553Z,100.00
2018-11-13T01:33:52.598Z,100.00
2018-11-13T01:36:27.580Z,100.00
2018-11-13T01:39:01.831Z,100.00
2018-11-13T01:46:58.398Z,100.00
2018-11-13T01:49:43.541Z,100.00
2018-11-13T02:01:16.388Z,100.00
2018-11-13T02:04:06.016Z,100.00
2018-11-13T02:06:47.177Z,100.00
2018-11-13T02:09:25.707Z,100.00
2018-11-13T02:12:14.469Z,100.00
2018-11-13T02:14:59.333Z,100.00
2018-11-13T02:17:41.775Z,100.00
2018-11-13T02:20:15.712Z,100.00
2018-11-13T02:22:47.546Z,100.00
2018-11-13T02:25:19.580Z,100.00
2018-11-13T02:27:50.706Z,100.00
2018-11-13T02:30:23.105Z,100.00
2018-11-13T02:32:54.802Z,100.00
2018-11-13T02:35:26.246Z,100.00
2018-11-13T02:37:57.022Z,100.00
2018-11-13T02:40:28.843Z,100.00
2018-11-13T02:43:00.278Z,100.00
2018-11-13T02:45:31.754Z,100.00
2018-11-13T02:48:02.668Z,100.00
2018-11-13T02:50:34.136Z,100.00
2018-11-13T02:53:05.376Z,100.00
2018-11-13T02:55:37.410Z,100.00
2018-11-13T02:58:08.635Z,100.00
2018-11-13T03:00:40.015Z,100.00
2018-11-13T03:03:11.377Z,100.00
2018-11-13T03:05:42.302Z,100.00
2018-11-13T03:08:13.362Z,100.00
2018-11-13T03:10:44.182Z,100.00
2018-11-13T03:13:15.325Z,100.00
2018-11-13T03:15:46.329Z,100.00
2018-11-13T03:18:18.291Z,100.00
2018-11-13T03:20:49.584Z,100.00
2018-11-13T03:23:20.388Z,100.00
2018-11-13T03:25:51.453Z,100.00
2018-11-13T03:28:22.520Z,100.00
2018-11-13T03:30:53.529Z,100.00
2018-11-13T03:33:24.355Z,100.00
2018-11-13T03:35:55.504Z,100.00
2018-11-13T03:38:26.422Z,100.00
2018-11-13T03:40:59.751Z,100.00
2018-11-13T03:43:30.763Z,100.00
2018-11-13T03:46:03.789Z,100.00
2018-11-13T03:48:37.040Z,100.00
2018-11-13T03:51:07.390Z,100.00
2018-11-13T03:53:37.787Z,100.00
2018-11-13T03:56:08.005Z,100.00
2018-11-13T03:58:38.313Z,100.00
2018-11-13T04:01:08.684Z,100.00
2018-11-13T04:03:39.084Z,100.00
2018-11-13T04:06:10.314Z,100.00
2018-11-13T04:08:41.622Z,100.00
2018-11-13T04:11:12.444Z,100.00
2018-11-13T04:13:43.258Z,100.00
2018-11-13T04:16:19.102Z,100.00
2018-11-13T04:18:49.955Z,100.00
2018-11-13T04:21:20.891Z,100.00
2018-11-13T04:23:52.188Z,100.00
2018-11-13T04:26:23.256Z,100.00
2018-11-13T04:28:54.329Z,100.00
2018-11-13T04:31:25.270Z,100.00
2018-11-13T04:33:58.366Z,100.00
2018-11-13T04:36:29.714Z,100.00
2018-11-13T04:39:00.863Z,100.00
2018-11-13T04:41:33.688Z,100.00
2018-11-13T04:44:04.753Z,100.00
2018-11-13T04:46:35.993Z,100.00
2018-11-13T04:49:17.402Z,100.00
2018-11-13T04:51:52.268Z,100.00
2018-11-13T04:54:28.745Z,100.00
2018-11-13T04:57:04.630Z,100.00
2018-11-13T04:59:40.629Z,100.00
2018-11-13T05:07:35.995Z,100.00
2018-11-13T05:10:12.769Z,100.00
2018-11-13T05:12:47.607Z,100.00
2018-11-13T05:15:21.876Z,100.00
2018-11-13T05:17:59.311Z,100.00
2018-11-13T05:20:39.346Z,100.00
2018-11-13T05:23:24.021Z,100.00
2018-11-13T05:26:08.112Z,100.00
2018-11-13T05:32:31.415Z,100.00
2018-11-13T05:35:10.549Z,100.00
2018-11-13T05:37:46.007Z,100.00
2018-11-13T05:40:29.632Z,100.00
2018-11-13T05:43:12.129Z,100.00
2018-11-13T05:48:32.811Z,100.00
2018-11-13T05:51:09.643Z,100.00
2018-11-13T05:53:58.442Z,100.00
2018-11-13T05:59:29.067Z,100.00
2018-11-13T06:04:56.124Z,100.00
2018-11-13T06:10:25.030Z,100.00
2018-11-13T06:15:54.226Z,100.00
2018-11-13T06:18:34.469Z,100.00
2018-11-13T06:21:11.772Z,100.00
2018-11-13T06:29:18.484Z,100.00
2018-11-13T06:32:02.382Z,100.00
2018-11-13T06:37:34.037Z,100.00
2018-11-13T06:40:25.214Z,100.00
2018-11-13T06:43:07.102Z,100.00
2018-11-13T06:45:49.287Z,100.00
2018-11-13T06:48:40.122Z,100.00
2018-11-13T07:00:31.787Z,100.00
2018-11-13T07:03:26.736Z,100.00
2018-11-13T07:09:09.533Z,100.00
2018-11-13T07:15:05.270Z,100.00
2018-11-13T07:23:22.372Z,100.00
2018-11-13T07:26:06.776Z,100.00
2018-11-13T07:34:39.882Z,100.00
2018-11-13T07:49:25.145Z,100.00
2018-11-13T08:01:56.887Z,100.00
2018-11-13T08:07:57.451Z,100.00
2018-11-13T08:13:29.922Z,100.00
2018-11-13T08:16:08.055Z,100.00
2018-11-13T08:21:47.288Z,99.99
2018-11-13T08:24:52.423Z,100.00
2018-11-13T09:02:14.767Z,98.31
2018-11-13T09:04:56.866Z,97.63
2018-11-13T09:07:32.479Z,98.21
2018-11-13T09:10:10.228Z,97.47
2018-11-13T09:12:43.112Z,97.61
2018-11-13T09:15:20.440Z,97.68
2018-11-13T09:18:04.511Z,97.73
2018-11-13T09:20:45.933Z,97.33
2018-11-13T09:23:18.252Z,96.75
2018-11-13T09:25:52.224Z,97.35
2018-11-13T09:28:24.936Z,96.53
2018-11-13T09:31:13.226Z,96.44
2018-11-13T09:33:55.227Z,95.81
2018-11-13T09:39:16.586Z,96.02
2018-11-13T09:41:49.715Z,96.63
2018-11-13T09:44:36.695Z,96.53
2018-11-13T09:47:10.605Z,96.65
2018-11-13T09:49:45.612Z,96.04
2018-11-13T09:52:24.313Z,96.66
2018-11-13T09:55:01.842Z,96.80
2018-11-13T09:57:42.909Z,97.20
2018-11-13T10:06:22.448Z,97.63
2018-11-13T10:12:21.718Z,97.96
2018-11-13T10:18:06.944Z,97.37
2018-11-13T10:20:45.798Z,98.17
2018-11-13T10:23:19.066Z,98.36
2018-11-13T10:28:47.427Z,98.21
2018-11-13T10:31:26.956Z,98.00
2018-11-13T10:34:05.932Z,98.32
2018-11-13T10:36:47.173Z,98.89
2018-11-13T10:42:06.487Z,98.94
2018-11-13T10:44:46.616Z,98.97
2018-11-13T10:50:18.110Z,98.68
2018-11-13T10:55:50.869Z,98.74
2018-11-13T10:58:29.824Z,98.90
2018-11-13T11:09:44.769Z,97.82
2018-11-13T11:12:26.918Z,97.73
2018-11-13T11:15:07.355Z,98.33
2018-11-13T11:17:45.061Z,97.86
2018-11-13T11:20:28.347Z,98.02
2018-11-13T11:25:46.243Z,96.44
2018-11-13T11:28:40.590Z,96.98
2018-11-13T11:31:19.814Z,97.10
2018-11-13T11:36:57.365Z,97.19
2018-11-13T11:39:38.825Z,96.13
2018-11-13T11:42:23.019Z,96.94
2018-11-13T11:45:15.896Z,96.52
2018-11-13T11:48:05.242Z,96.19
2018-11-13T11:51:06.532Z,96.68
2018-11-13T12:05:05.364Z,95.54
2018-11-13T12:16:33.045Z,95.31
2018-11-13T12:19:09.466Z,94.36
2018-11-13T12:21:57.327Z,94.67
2018-11-13T12:24:50.443Z,93.75
2018-11-13T12:27:26.168Z,93.28
2018-11-13T12:30:16.449Z,92.77
2018-11-13T12:33:00.282Z,91.78
2018-11-13T12:35:39.224Z,91.99
2018-11-13T12:38:11.601Z,93.17
2018-11-13T12:40:50.723Z,93.12
2018-11-13T12:46:16.844Z,93.22
2018-11-13T12:48:52.821Z,93.33
2018-11-13T12:51:32.836Z,93.46
2018-11-13T12:54:05.316Z,93.84
2018-11-13T12:56:36.363Z,93.48
2018-11-13T12:59:08.492Z,94.05
2018-11-13T13:01:39.502Z,93.65
2018-11-13T13:04:11.531Z,93.27
2018-11-13T13:06:43.501Z,92.78
2018-11-13T13:09:16.616Z,93.78
2018-11-13T13:11:48.356Z,93.29
2018-11-13T13:14:23.454Z,93.48
2018-11-13T13:17:07.034Z,93.54
2018-11-13T13:19:40.784Z,93.72
2018-11-13T13:24:52.598Z,94.59
2018-11-13T13:27:37.208Z,94.46
2018-11-13T13:30:14.442Z,94.00
2018-11-13T13:32:53.866Z,94.15
2018-11-13T13:36:04.097Z,93.76
2018-11-13T13:38:38.740Z,94.37
2018-11-13T13:41:09.725Z,94.37
2018-11-13T13:43:40.828Z,94.34
2018-11-13T13:46:12.173Z,94.68
2018-11-13T13:48:44.481Z,94.50
2018-11-13T13:51:15.440Z,94.22
2018-11-13T13:53:47.368Z,94.53
2018-11-13T13:56:18.093Z,94.04
2018-11-13T13:58:49.729Z,94.43
2018-11-13T14:01:22.003Z,94.04
2018-11-13T14:03:53.888Z,94.62
2018-11-13T14:06:25.337Z,94.95
2018-11-13T14:09:01.842Z,95.19
2018-11-13T14:11:42.787Z,94.83
2018-11-13T14:14:15.861Z,94.29
2018-11-13T14:16:47.313Z,94.41
2018-11-13T14:19:24.044Z,94.92
2018-11-13T14:21:57.524Z,94.44
2018-11-13T14:24:30.441Z,95.52
2018-11-13T14:27:05.361Z,96.28
2018-11-13T14:29:41.471Z,95.42
2018-11-13T14:32:12.302Z,95.54
2018-11-13T14:34:43.860Z,95.43
2018-11-13T14:37:24.758Z,95.53
2018-11-13T14:39:55.986Z,94.89
2018-11-13T14:42:33.434Z,95.35
2018-11-13T14:45:06.419Z,94.82
2018-11-13T14:47:37.663Z,94.14
2018-11-13T14:50:21.393Z,94.33
2018-11-13T14:55:32.372Z,94.24
2018-11-13T14:58:07.305Z,94.32
2018-11-13T15:00:40.949Z,93.89
2018-11-13T15:03:13.324Z,93.44
2018-11-13T15:05:44.513Z,93.75
2018-11-13T15:08:19.567Z,93.08
2018-11-13T15:10:52.088Z,92.85
2018-11-13T15:13:27.099Z,93.29
2018-11-13T15:15:58.683Z,92.31
2018-11-13T15:18:34.809Z,92.28
2018-11-13T15:21:06.126Z,92.19
2018-11-13T15:23:44.332Z,92.91
2018-11-13T15:26:16.093Z,92.40
2018-11-13T15:28:49.117Z,92.56
2018-11-13T15:31:23.948Z,92.50
2018-11-13T15:33:55.277Z,93.05
2018-11-13T15:36:29.487Z,92.27
2018-11-13T15:39:01.908Z,93.28
2018-11-13T15:41:35.032Z,92.24
2018-11-13T15:44:07.725Z,92.52
2018-11-13T15:46:38.811Z,93.51
2018-11-13T15:49:11.515Z,93.15
2018-11-13T15:51:43.607Z,94.44
2018-11-13T15:54:15.116Z,93.67
2018-11-13T15:56:47.856Z,93.73
2018-11-13T15:59:19.715Z,94.47
2018-11-13T16:01:51.211Z,94.19
2018-11-13T16:04:23.002Z,94.98
2018-11-13T16:06:55.839Z,96.03
2018-11-13T16:09:29.174Z,96.76
2018-11-13T16:12:00.531Z,96.44
2018-11-13T16:14:31.986Z,97.09
2018-11-13T16:17:06.204Z,97.40
2018-11-13T16:19:37.325Z,97.07
2018-11-13T16:22:09.899Z,97.19
2018-11-13T16:24:42.076Z,97.74
2018-11-13T16:27:13.477Z,97.27
2018-11-13T16:29:45.893Z,97.16
2018-11-13T16:32:18.913Z,96.52
2018-11-13T16:34:49.890Z,96.95
2018-11-13T16:37:22.131Z,96.34
2018-11-13T16:39:53.515Z,96.20
2018-11-13T16:42:25.645Z,95.97
2018-11-13T16:44:57.687Z,95.87
2018-11-13T16:47:29.974Z,96.23
2018-11-13T16:50:01.405Z,95.61
2018-11-13T16:52:33.391Z,94.71
2018-11-13T16:55:07.235Z,94.82
2018-11-13T16:57:39.553Z,95.43
2018-11-13T17:00:15.052Z,95.62
2018-11-13T17:02:50.560Z,94.48
2018-11-13T17:05:24.178Z,94.70
2018-11-13T17:07:55.535Z,95.36
2018-11-13T17:10:28.334Z,94.87
2018-11-13T17:13:02.208Z,94.69
2018-11-13T17:15:34.449Z,94.47
2018-11-13T17:18:05.590Z,94.91
2018-11-13T17:20:36.874Z,94.95
2018-11-13T17:23:07.923Z,95.04
2018-11-13T17:25:42.200Z,95.10
2018-11-13T17:28:20.819Z,95.32
2018-11-13T17:30:56.411Z,95.74
2018-11-13T17:33:32.414Z,95.71
2018-11-13T17:36:06.655Z,95.46
2018-11-13T17:38:38.592Z,95.53
2018-11-13T17:41:11.945Z,95.97
2018-11-13T17:43:47.046Z,96.85
2018-11-13T17:46:18.325Z,98.26
2018-11-13T17:48:51.193Z,99.76
2018-11-13T17:51:21.902Z,99.82
2018-11-13T17:53:53.451Z,100.00
2018-11-13T17:56:24.478Z,100.00
2018-11-13T17:58:55.765Z,100.00
2018-11-13T18:01:28.016Z,100.00
2018-11-13T18:04:00.088Z,100.00
2018-11-13T18:06:34.892Z,100.00
2018-11-13T18:09:16.803Z,100.00
2018-11-13T18:11:48.329Z,100.00
2018-11-13T18:14:21.251Z,99.58
2018-11-13T18:16:52.272Z,99.36
2018-11-13T18:19:27.986Z,99.38
2018-11-13T18:22:00.690Z,99.26
2018-11-13T18:24:44.556Z,98.80
2018-11-13T18:27:17.887Z,98.59
2018-11-13T18:29:49.502Z,99.48
2018-11-13T18:32:22.703Z,100.00
2018-11-13T18:34:54.754Z,100.00
2018-11-13T18:37:26.155Z,100.00
2018-11-13T18:40:03.273Z,99.63
2018-11-13T18:42:34.787Z,100.00
2018-11-13T18:45:09.239Z,100.00
2018-11-13T18:47:46.451Z,100.00
2018-11-13T18:50:19.772Z,100.00
2018-11-13T18:52:50.848Z,100.00
2018-11-13T18:55:24.148Z,100.00
2018-11-13T18:57:56.344Z,99.83
2018-11-13T19:00:32.932Z,99.55
2018-11-13T19:03:05.006Z,99.58
2018-11-13T19:05:36.224Z,98.84
2018-11-13T19:08:09.196Z,98.95
2018-11-13T19:10:48.047Z,98.01
2018-11-13T19:13:21.196Z,97.91
2018-11-13T19:16:02.861Z,97.69
2018-11-13T19:18:36.716Z,98.51
2018-11-13T19:21:10.418Z,98.37
2018-11-13T19:23:42.204Z,97.34
2018-11-13T19:26:15.643Z,97.68
2018-11-13T19:28:50.178Z,97.54
2018-11-13T19:31:21.007Z,97.60
2018-11-13T19:33:53.482Z,97.35
2018-11-13T19:36:29.233Z,97.24
2018-11-13T19:39:00.299Z,97.66
2018-11-13T19:41:34.615Z,96.96
2018-11-13T19:44:06.279Z,97.59
2018-11-13T19:46:38.964Z,97.56
2018-11-13T19:49:09.889Z,97.52
2018-11-13T19:51:40.667Z,97.04
2018-11-13T19:54:11.791Z,97.68
2018-11-13T19:56:43.114Z,97.90
2018-11-13T19:59:14.848Z,97.48
2018-11-13T20:01:49.922Z,97.72
2018-11-13T20:04:21.575Z,97.44
2018-11-13T20:07:04.403Z,97.60
2018-11-13T20:09:35.269Z,97.81
2018-11-13T20:12:08.586Z,98.17
2018-11-13T20:14:41.449Z,97.19
2018-11-13T20:17:14.260Z,97.37
2018-11-13T20:19:48.154Z,97.77
2018-11-13T20:22:19.639Z,98.49
2018-11-13T20:24:51.509Z,99.46
2018-11-13T20:27:24.154Z,100.00
2018-11-13T20:29:56.091Z,100.00
2018-11-13T20:32:29.872Z,100.00
2018-11-13T20:35:01.492Z,100.00
2018-11-13T20:37:32.933Z,100.00
2018-11-13T20:40:07.024Z,100.00
2018-11-13T20:42:38.865Z,100.00
2018-11-13T20:45:12.809Z,100.00
2018-11-13T20:47:44.969Z,100.00
2018-11-13T20:50:21.530Z,100.00
2018-11-13T20:52:54.220Z,100.00
2018-11-13T20:55:25.788Z,100.00
2018-11-13T20:57:57.824Z,100.00
2018-11-13T21:00:36.963Z,100.00
2018-11-13T21:03:11.749Z,100.00
2018-11-13T21:05:45.101Z,100.00
2018-11-13T21:08:17.614Z,100.00
2018-11-13T21:11:00.932Z,100.00
2018-11-13T21:13:33.781Z,100.00
2018-11-13T21:18:43.889Z,100.00
2018-11-13T21:21:17.675Z,100.00
2018-11-13T21:23:58.239Z,100.00
2018-11-13T21:26:32.465Z,100.00
2018-11-13T21:29:05.818Z,100.00
2018-11-13T21:31:50.939Z,100.00
2018-11-13T21:34:25.909Z,100.00
2018-11-13T21:37:05.227Z,100.00
2018-11-13T21:39:44.271Z,100.00
2018-11-13T21:42:15.403Z,100.00
2018-11-13T21:44:58.122Z,100.00
2018-11-13T21:47:31.873Z,100.00
2018-11-13T21:50:04.405Z,100.00
2018-11-13T21:52:41.224Z,100.00
2018-11-13T21:55:22.061Z,100.00
2018-11-13T21:57:57.041Z,100.00
2018-11-13T22:00:41.239Z,100.00
2018-11-13T22:03:13.222Z,100.00
2018-11-13T22:05:46.139Z,100.00
2018-11-13T22:08:26.027Z,100.00
2018-11-13T22:14:02.442Z,100.00
2018-11-13T22:16:35.152Z,100.00
2018-11-13T22:19:12.194Z,100.00
2018-11-13T22:21:51.305Z,100.00
2018-11-13T22:24:23.311Z,100.00
2018-11-13T22:26:58.286Z,100.00
2018-11-13T22:29:37.131Z,100.00
2018-11-13T22:32:08.715Z,100.00
2018-11-13T22:34:40.336Z,100.00
2018-11-13T22:37:11.879Z,100.00
2018-11-13T22:39:47.684Z,100.00
2018-11-13T22:42:19.009Z,100.00
2018-11-13T22:44:52.736Z,100.00
2018-11-13T22:47:25.791Z,100.00
2018-11-13T22:49:59.993Z,100.00
2018-11-13T22:52:36.190Z,100.00
2018-11-13T22:55:13.164Z,100.00
2018-11-13T22:57:44.914Z,100.00
2018-11-13T23:00:21.921Z,100.00
2018-11-13T23:02:54.454Z,100.00
2018-11-13T23:05:25.352Z,100.00
2018-11-13T23:07:56.124Z,100.00
2018-11-13T23:10:28.526Z,100.00
2018-11-13T23:13:01.089Z,100.00
2018-11-13T23:15:32.120Z,100.00
2018-11-13T23:18:03.072Z,100.00
2018-11-13T23:20:34.433Z,100.00
2018-11-13T23:23:05.359Z,100.00
2018-11-13T23:25:36.258Z,100.00
2018-11-13T23:28:08.080Z,100.00
2018-11-13T23:30:39.283Z,100.00
2018-11-13T23:33:10.093Z,100.00
2018-11-13T23:35:43.082Z,100.00
2018-11-13T23:38:14.324Z,100.00
2018-11-13T23:40:45.157Z,100.00
2018-11-13T23:43:16.228Z,100.00
2018-11-13T23:45:47.780Z,100.00
2018-11-13T23:49:22.212Z,100.00
2018-11-13T23:51:53.225Z,100.00
2018-11-13T23:54:26.216Z,100.00
2018-11-13T23:56:57.052Z,100.00
2018-11-13T23:59:30.966Z,100.00
